Time;durP1;ratioP1;P1;durP2;ratioP2;P2;SDS_P1;SDS_P2;PMS_P1;PMS_P2;Temp;Humidity;BMP_temperature;BMP_pressure;BME280_temperature;BME280_humidity;BME280_pressure;Samples;Min_cycle;Max_cycle;Signal;HPM_P1;HPM_P2
2021/12/28 00:00:19;;;;;;;29.42;17.25;;;;;;;-5.98;100.00;100088.96;1678338;85;21045;-63
2021/12/28 00:02:47;;;;;;;32.78;20.45;;;;;;;-5.95;100.00;100085.50;1678386;85;21006;-64
2021/12/28 00:05:14;;;;;;;37.73;20.82;;;;;;;-5.92;100.00;100089.19;1678470;85;21060;-62
2021/12/28 00:07:42;;;;;;;32.48;19.50;;;;;;;-5.89;100.00;100090.68;1678220;85;21058;-63
2021/12/28 00:10:10;;;;;;;31.30;18.45;;;;;;;-5.85;100.00;100090.19;1676787;85;21109;-64
2021/12/28 00:12:38;;;;;;;31.25;18.62;;;;;;;-5.86;100.00;100083.73;1678507;85;21876;-63
2021/12/28 00:20:19;;;;;;;31.10;16.67;;;;;;;-6.08;100.00;100091.73;1672998;84;21056;-63
2021/12/28 00:22:46;;;;;;;28.57;16.82;;;;;;;-6.08;100.00;100087.75;1678173;85;21029;-63
2021/12/28 00:25:15;;;;;;;;;;;;;;;-6.11;100.00;100088.91;1671248;84;21140;-63
2021/12/28 00:27:42;;;;;;;30.85;17.60;;;;;;;-6.13;100.00;100090.87;1668752;85;20203;-63
2021/12/28 00:30:10;;;;;;;33.65;18.92;;;;;;;-6.21;100.00;100095.30;1736960;81;21063;-63
2021/12/28 00:32:36;;;;;;;30.62;18.15;;;;;;;-6.23;100.00;100090.63;1727779;82;20998;-63
2021/12/28 00:35:04;;;;;;;30.85;18.82;;;;;;;-6.26;100.00;100088.30;1736951;81;21660;-63
2021/12/28 00:37:30;;;;;;;27.82;17.15;;;;;;;-6.29;100.00;100088.13;1734039;82;21031;-62
2021/12/28 00:39:56;;;;;;;33.85;18.17;;;;;;;-6.27;100.00;100081.36;1725070;82;21039;-62
2021/12/28 00:42:23;;;;;;;30.65;17.12;;;;;;;-6.24;100.00;100084.53;1726528;82;21072;-64
2021/12/28 00:44:49;;;;;;;;;;;;;;;-6.18;100.00;100084.39;1736435;81;21040;-62
2021/12/28 00:47:16;;;;;;;28.47;16.93;;;;;;;-6.16;100.00;100084.56;1703423;82;20121;-63
2021/12/28 00:49:42;;;;;;;30.10;18.20;;;;;;;-6.18;100.00;100081.25;1730836;81;21518;-63
2021/12/28 00:52:10;;;;;;;29.70;17.42;;;;;;;-6.16;100.00;100079.26;1725928;82;21019;-62
2021/12/28 00:54:36;;;;;;;25.62;15.08;;;;;;;-6.14;100.00;100077.79;1714922;82;21595;-63
2021/12/28 00:57:03;;;;;;;29.32;18.23;;;;;;;-6.12;100.00;100075.80;1716680;82;21533;-63
2021/12/28 00:59:30;;;;;;;29.85;19.10;;;;;;;-6.12;100.00;100078.45;1727468;82;21032;-63
2021/12/28 01:01:56;;;;;;;28.17;16.25;;;;;;;-6.14;100.00;100079.11;1735470;82;21588;-63
2021/12/28 01:04:24;;;;;;;29.18;17.40;;;;;;;-6.11;100.00;100080.95;1723396;82;21040;-63
2021/12/28 01:06:50;;;;;;;27.67;16.85;;;;;;;-6.10;100.00;100072.03;1735411;82;20972;-63
2021/12/28 01:09:16;;;;;;;;;;;;;;;-6.08;100.00;100073.17;1726952;82;21616;-63
2021/12/28 01:11:43;;;;;;;27.67;15.43;;;;;;;-6.02;100.00;100073.06;1724696;82;20155;-62
2021/12/28 01:14:09;;;;;;;28.10;16.67;;;;;;;-6.05;100.00;100072.86;1732745;81;21618;-63
2021/12/28 01:16:36;;;;;;;26.48;15.58;;;;;;;-6.03;100.00;100070.90;1737069;82;21079;-63
2021/12/28 01:19:03;;;;;;;24.67;16.50;;;;;;;-6.01;100.00;100071.56;1725900;82;21526;-63
2021/12/28 01:21:29;;;;;;;27.20;17.35;;;;;;;-5.98;100.00;100060.64;1736088;82;21059;-63
2021/12/28 01:23:55;;;;;;;27.58;16.20;;;;;;;-5.98;100.00;100061.96;1725527;81;21055;-63
2021/12/28 01:26:22;;;;;;;24.80;15.20;;;;;;;-5.96;100.00;100058.67;1719368;82;21027;-63
2021/12/28 01:28:48;;;;;;;;;;;;;;;-5.94;100.00;100060.66;1721997;82;21574;-63
2021/12/28 01:31:15;;;;;;;30.15;17.07;;;;;;;-5.91;100.00;100055.53;1736558;82;20126;-63
2021/12/28 01:33:41;;;;;;;30.35;17.42;;;;;;;-5.96;100.00;100052.54;1726029;82;21723;-63
2021/12/28 01:36:07;;;;;;;26.77;16.65;;;;;;;-5.96;100.00;100053.86;1722844;82;20988;-63
2021/12/28 01:38:33;;;;;;;30.48;18.60;;;;;;;-5.93;100.00;100060.17;1720459;82;21023;-62
2021/12/28 01:43:29;;;;;;;29.85;16.70;;;;;;;-5.82;100.00;100048.77;1799475;78;22677;-62
2021/12/28 01:45:59;;;;;;;25.60;15.25;;;;;;;-5.89;100.00;100053.08;1741421;82;21536;-63
2021/12/28 01:48:33;;;;;;;25.48;16.35;;;;;;;-5.87;100.00;100047.11;1731502;82;21043;-63
2021/12/28 01:51:12;;;;;;;24.60;13.83;;;;;;;-5.87;100.00;100045.78;1733253;82;21079;-63
2021/12/28 01:53:40;;;;;;;25.52;15.28;;;;;;;-5.86;100.00;100054.57;1748226;80;21098;-63
2021/12/28 01:56:08;;;;;;;;;;;;;;;-5.89;100.00;100057.05;1736731;82;20983;-63
2021/12/28 01:58:35;;;;;;;22.65;13.20;;;;;;;-5.88;100.00;100060.54;1730379;82;20139;-63
2021/12/28 02:01:01;;;;;;;25.27;14.93;;;;;;;-5.94;100.00;100058.50;1722894;82;21101;-63
2021/12/28 02:03:28;;;;;;;24.50;14.40;;;;;;;-5.95;100.00;100048.91;1716945;82;21192;-63
2021/12/28 02:05:55;;;;;;;25.92;15.05;;;;;;;-5.94;100.00;100046.08;1731003;82;20991;-64
2021/12/28 02:08:21;;;;;;;35.23;19.77;;;;;;;-5.94;100.00;100059.83;1734850;82;21834;-63
2021/12/28 02:10:52;;;;;;;28.57;17.85;;;;;;;-5.93;100.00;100067.63;1739990;82;21031;-63
2021/12/28 02:13:19;;;;;;;30.72;17.27;;;;;;;-5.93;100.00;100070.28;1726429;82;21600;-62
2021/12/28 02:15:46;;;;;;;29.63;17.52;;;;;;;-5.92;100.00;100067.14;1729343;82;20999;-62
2021/12/28 02:18:14;;;;;;;29.95;16.97;;;;;;;-5.91;100.00;100070.94;1733717;82;21038;-63
2021/12/28 02:20:41;;;;;;;26.57;16.57;;;;;;;-5.90;100.00;100063.83;1727872;82;20963;-63
2021/12/28 02:23:10;;;;;;;26.57;16.10;;;;;;;-5.91;100.00;100051.06;1733713;82;21094;-63
2021/12/28 02:25:38;;;;;;;26.40;16.52;;;;;;;-5.91;100.00;100047.58;1749154;82;21501;-63
2021/12/28 02:28:06;;;;;;;;;;;;;;;-5.92;100.00;100035.33;1729714;82;21058;-63
2021/12/28 02:30:33;;;;;;;26.90;14.20;;;;;;;-5.92;100.00;100037.49;1747612;82;20107;-63
2021/12/28 02:32:59;;;;;;;;;;;;;;;-5.97;100.00;100028.34;1753723;82;21526;-62
2021/12/28 02:35:26;;;;;;;22.20;13.70;;;;;;;-5.97;100.00;100030.98;1744670;80;20090;-63
2021/12/28 02:37:53;;;;;;;24.55;13.98;;;;;;;-6.00;100.00;100026.01;1737124;82;21512;-63
2021/12/28 02:40:23;;;;;;;24.30;14.78;;;;;;;-5.98;100.00;100017.39;1734154;82;21070;-62
2021/12/28 02:42:49;;;;;;;26.02;14.83;;;;;;;-5.99;100.00;100023.21;1728100;82;21545;-63
2021/12/28 02:45:23;;;;;;;23.57;13.85;;;;;;;-6.00;100.00;100026.01;1725713;81;21046;-63
2021/12/28 02:47:50;;;;;;;28.30;14.90;;;;;;;-6.00;100.00;100026.84;1716900;82;21090;-63
2021/12/28 02:50:21;;;;;;;26.10;15.25;;;;;;;-6.01;100.00;100023.84;1727928;81;21055;-63
2021/12/28 02:52:48;;;;;;;27.67;16.00;;;;;;;-5.97;100.00;100023.03;1733720;82;21003;-63
2021/12/28 02:55:17;;;;;;;25.72;15.43;;;;;;;-5.97;100.00;100027.84;1729772;81;21514;-63
2021/12/28 02:57:50;;;;;;;26.02;15.40;;;;;;;-5.95;100.00;100013.92;1740798;82;21498;-63
2021/12/28 03:00:34;;;;;;;25.43;15.55;;;;;;;-5.95;100.00;100011.80;1730927;81;21031;-62
2021/12/28 03:03:11;;;;;;;31.37;17.95;;;;;;;-5.97;100.00;100031.83;1725451;82;21022;-62
2021/12/28 03:05:38;;;;;;;29.02;16.02;;;;;;;-5.96;100.00;100028.68;1725937;82;21007;-62
2021/12/28 03:08:05;;;;;;;27.67;16.45;;;;;;;-5.95;100.00;100016.58;1735011;82;21063;-63
2021/12/28 03:10:33;;;;;;;27.37;16.12;;;;;;;-5.95;100.00;100030.35;1739526;82;21604;-63
2021/12/28 03:13:00;;;;;;;27.77;17.07;;;;;;;-5.95;100.00;100027.18;1742864;82;21593;-63
2021/12/28 03:15:26;;;;;;;28.10;16.17;;;;;;;-5.94;100.00;100024.88;1722489;81;21086;-62
2021/12/28 03:17:54;;;;;;;27.82;16.20;;;;;;;-5.94;100.00;100026.69;1725471;82;21063;-62
2021/12/28 03:20:21;;;;;;;24.10;14.43;;;;;;;-5.94;100.00;100021.39;1732771;81;21086;-62
2021/12/28 03:22:47;;;;;;;26.80;16.42;;;;;;;-5.94;100.00;100014.27;1740353;82;21024;-63
2021/12/28 03:25:14;;;;;;;26.48;15.93;;;;;;;-5.94;100.00;100008.12;1734567;82;21043;-63
2021/12/28 03:27:42;;;;;;;25.88;15.93;;;;;;;-5.95;100.00;100013.92;1732411;82;21553;-63
2021/12/28 03:30:11;;;;;;;27.62;15.43;;;;;;;-5.93;100.00;100005.34;1741084;81;21067;-63
2021/12/28 03:32:38;;;;;;;28.15;16.85;;;;;;;-5.94;100.00;100006.31;1733306;82;21026;-62
2021/12/28 03:35:06;;;;;;;29.30;15.93;;;;;;;-5.94;100.00;100003.66;1713595;82;21572;-62
2021/12/28 03:37:33;;;;;;;25.27;15.30;;;;;;;-5.93;100.00;100021.24;1726142;82;21023;-63
2021/12/28 03:40:00;;;;;;;;;;;;;;;-5.92;100.00;100025.56;1735781;81;21059;-62
2021/12/28 03:42:26;;;;;;;31.65;15.78;;;;;;;-5.87;100.00;100021.09;1730839;82;20111;-63
2021/12/28 03:44:53;;;;;;;25.65;15.80;;;;;;;-5.90;100.00;100005.50;1702282;82;21130;-63
2021/12/28 03:47:19;;;;;;;27.55;16.25;;;;;;;-5.89;100.00;100000.55;1723614;82;21047;-62
2021/12/28 03:49:45;;;;;;;26.97;16.40;;;;;;;-5.91;100.00;99998.04;1730811;81;21039;-63
2021/12/28 03:52:12;;;;;;;27.58;15.30;;;;;;;-5.95;100.00;100003.32;1731947;82;21035;-63
2021/12/28 03:54:38;;;;;;;26.80;15.10;;;;;;;-5.95;100.00;100005.97;1728152;82;21582;-62
2021/12/28 03:57:05;;;;;;;30.27;15.85;;;;;;;-5.93;100.00;100005.34;1719543;82;21028;-62
2021/12/28 03:59:32;;;;;;;28.07;15.80;;;;;;;-5.91;100.00;99994.55;1718105;82;21124;-63
2021/12/28 04:01:58;;;;;;;27.02;15.65;;;;;;;-5.91;100.00;99996.72;1722288;82;21031;-62
2021/12/28 04:04:25;;;;;;;25.35;15.63;;;;;;;-5.87;100.00;100003.85;1720760;82;21023;-63
2021/12/28 04:06:51;;;;;;;23.35;13.72;;;;;;;-5.85;100.00;99999.20;1705177;82;21015;-62
2021/12/28 04:09:45;;;;;;;24.30;13.75;;;;;;;-5.84;100.00;99992.40;1727082;81;21598;-62
2021/12/28 04:11:50;;;;;;;26.97;15.53;;;;;;;-5.83;100.00;99996.72;1728269;82;21436;-63
2021/12/28 04:14:17;;;;;;;24.80;15.75;;;;;;;-5.85;100.00;99993.41;1718465;82;21012;-63
2021/12/28 04:16:43;;;;;;;26.70;15.95;;;;;;;-5.82;100.00;100002.37;1730335;82;21086;-63
2021/12/28 04:19:09;;;;;;;24.30;14.47;;;;;;;-5.84;100.00;100005.66;1734762;81;21115;-63
2021/12/28 04:21:36;;;;;;;25.57;14.63;;;;;;;-5.85;100.00;99997.39;1720047;82;21727;-63
2021/12/28 04:24:02;;;;;;;26.25;15.38;;;;;;;-5.82;100.00;99997.55;1723480;82;21028;-63
2021/12/28 04:26:29;;;;;;;28.05;15.88;;;;;;;-5.81;100.00;99995.25;1721541;82;21011;-63
2021/12/28 04:28:56;;;;;;;26.42;15.13;;;;;;;-5.81;100.00;99993.40;1723651;82;21036;-62
2021/12/28 04:31:23;;;;;;;25.05;14.78;;;;;;;-5.78;100.00;99998.41;1732681;82;21027;-63
2021/12/28 04:33:49;;;;;;;;;;;;;;;-5.76;100.00;99994.25;1713010;82;21499;-63
2021/12/28 04:36:16;;;;;;;26.23;15.60;;;;;;;-5.78;100.00;99996.25;1719563;82;20135;-62
2021/12/28 04:38:44;;;;;;;30.62;15.85;;;;;;;-5.83;100.00;99997.21;1719794;82;21103;-63
2021/12/28 04:41:11;;;;;;;34.00;16.93;;;;;;;-5.83;100.00;99994.56;1720227;82;21043;-62
2021/12/28 04:43:37;;;;;;;;;;;;;;;-5.86;100.00;100001.05;1729490;82;21090;-62
2021/12/28 04:46:05;;;;;;;25.27;14.60;;;;;;;-5.89;100.00;100006.68;1735457;82;20155;-63
2021/12/28 04:48:33;;;;;;;26.70;15.10;;;;;;;-5.92;100.00;100010.98;1729328;82;21111;-63
2021/12/28 04:51:00;;;;;;;28.87;14.73;;;;;;;-5.90;100.00;100008.98;1726593;82;21098;-62
2021/12/28 04:53:27;;;;;;;26.87;14.95;;;;;;;-5.89;100.00;100013.31;1729610;82;21635;-62
2021/12/28 04:55:54;;;;;;;26.65;15.15;;;;;;;-5.89;100.00;100016.45;1728337;82;21094;-63
2021/12/28 04:58:20;;;;;;;;;;;;;;;-5.88;100.00;100006.99;1728445;82;21054;-62
2021/12/28 05:00:48;;;;;;;31.68;17.65;;;;;;;-5.87;100.00;100006.50;1733735;82;20142;-63
2021/12/28 05:03:15;;;;;;;30.62;16.23;;;;;;;-5.91;100.00;99998.04;1737492;81;21040;-62
2021/12/28 05:05:44;;;;;;;25.00;14.58;;;;;;;-5.92;100.00;99996.41;1735577;82;21612;-62
2021/12/28 05:08:12;;;;;;;29.82;15.68;;;;;;;-5.92;100.00;100001.70;1737020;82;21046;-63
2021/12/28 05:10:40;;;;;;;25.77;14.75;;;;;;;-5.92;100.00;100008.82;1741068;82;21564;-62
2021/12/28 05:13:06;;;;;;;25.88;14.47;;;;;;;-5.90;100.00;100002.36;1731107;82;21521;-62
2021/12/28 05:15:34;;;;;;;26.80;15.38;;;;;;;-5.90;100.00;99998.38;1726898;82;21106;-63
2021/12/28 05:18:01;;;;;;;26.35;15.32;;;;;;;-5.91;100.00;99997.20;1737848;82;21122;-63
2021/12/28 05:20:28;;;;;;;30.40;17.20;;;;;;;-5.91;100.00;100000.69;1728393;81;21043;-63
2021/12/28 05:22:54;;;;;;;28.80;15.93;;;;;;;-5.94;100.00;99995.72;1733682;82;20979;-64
2021/12/28 05:25:21;;;;;;;33.30;18.25;;;;;;;-5.96;100.00;99986.27;1730589;81;21086;-63
2021/12/28 05:27:47;;;;;;;29.12;16.90;;;;;;;-5.96;100.00;99984.94;1740638;82;21044;-63
2021/12/28 05:30:13;;;;;;;31.68;18.40;;;;;;;-5.98;100.00;99990.39;1738083;81;21019;-63
2021/12/28 05:32:40;;;;;;;29.42;15.98;;;;;;;-5.98;100.00;99997.02;1721680;82;21082;-62
2021/12/28 05:35:07;;;;;;;30.57;17.30;;;;;;;-5.96;100.00;99988.43;1737236;82;21022;-63
2021/12/28 05:37:35;;;;;;;30.60;16.42;;;;;;;-5.97;100.00;99986.76;1734604;82;21039;-63
2021/12/28 05:40:04;;;;;;;28.95;16.70;;;;;;;-5.98;100.00;99989.56;1737955;81;21029;-63
2021/12/28 05:42:32;;;;;;;29.55;17.62;;;;;;;-5.98;100.00;99989.06;1722242;82;21589;-63
2021/12/28 05:44:59;;;;;;;28.40;16.62;;;;;;;-5.97;100.00;99985.44;1731298;82;21059;-63
2021/12/28 05:47:27;;;;;;;29.12;17.30;;;;;;;-5.95;100.00;99991.39;1736534;82;20982;-62
2021/12/28 05:49:53;;;;;;;30.88;16.60;;;;;;;-5.97;100.00;99987.25;1726258;82;21038;-62
2021/12/28 05:52:19;;;;;;;32.75;18.07;;;;;;;-5.97;100.00;99986.76;1740419;82;21007;-63
2021/12/28 05:54:46;;;;;;;31.57;17.40;;;;;;;-5.99;100.00;99990.08;1734105;81;21130;-62
2021/12/28 05:57:13;;;;;;;29.18;17.87;;;;;;;-6.00;100.00;99992.87;1727994;82;21019;-63
2021/12/28 05:59:39;;;;;;;;;;;;;;;-6.05;100.00;99998.64;1734563;82;21043;-63
2021/12/28 06:02:05;;;;;;;30.68;16.77;;;;;;;-6.06;100.00;99999.66;1729185;82;20151;-63
2021/12/28 06:04:33;;;;;;;32.40;16.77;;;;;;;-6.11;100.00;100009.89;1729885;81;21059;-63
2021/12/28 06:06:59;;;;;;;35.85;18.55;;;;;;;-6.13;100.00;100017.19;1737502;82;21343;-61
2021/12/28 06:09:25;;;;;;;28.92;16.70;;;;;;;-6.14;100.00;100015.52;1730409;82;21019;-62
2021/12/28 06:11:52;;;;;;;26.60;16.07;;;;;;;-6.14;100.00;100014.19;1735089;82;21032;-62
2021/12/28 06:14:20;;;;;;;32.10;17.87;;;;;;;-6.15;100.00;100022.63;1736969;81;21110;-62
2021/12/28 06:16:46;;;;;;;29.63;17.65;;;;;;;-6.18;100.00;100015.00;1739985;82;21007;-63
2021/12/28 06:19:13;;;;;;;29.45;17.45;;;;;;;-6.19;100.00;100017.80;1728026;82;21055;-63
2021/12/28 06:21:39;;;;;;;30.95;17.23;;;;;;;-6.23;100.00;100007.17;1725359;83;21050;-64
2021/12/28 06:24:06;;;;;;;28.50;17.25;;;;;;;-6.26;100.00;100010.97;1729451;82;21546;-61
2021/12/28 06:26:33;;;;;;;30.80;17.55;;;;;;;-6.32;100.00;99997.04;1720448;81;21074;-63
2021/12/28 06:29:03;;;;;;;31.60;17.15;;;;;;;-6.34;100.00;100004.81;1720685;82;21063;-63
2021/12/28 06:31:31;;;;;;;29.85;15.72;;;;;;;-6.33;100.00;100015.23;1726884;82;21648;-63
2021/12/28 06:33:58;;;;;;;29.50;17.15;;;;;;;-6.33;100.00;100011.75;1725490;83;21071;-63
2021/12/28 06:36:27;;;;;;;31.20;17.45;;;;;;;-6.34;100.00;100022.84;1725934;83;21031;-63
2021/12/28 06:38:54;;;;;;;29.60;16.80;;;;;;;-6.36;100.00;100018.70;1733045;82;21117;-63
2021/12/28 06:41:20;;;;;;;28.98;17.17;;;;;;;-6.36;100.00;100019.53;1726889;82;21082;-63
2021/12/28 06:43:50;;;;;;;;;;;;;;;-6.37;100.00;100021.84;1724103;82;21075;-63
2021/12/28 06:46:16;;;;;;;28.27;15.35;;;;;;;-6.36;100.00;100034.59;1725043;82;20122;-63
2021/12/28 06:48:42;;;;;;;;;;;;;;;-6.40;100.00;100026.62;1719904;82;21126;-63
2021/12/28 06:51:09;;;;;;;29.27;15.32;;;;;;;-6.41;100.00;100011.73;1711676;83;20176;-64
2021/12/28 06:53:35;;;;;;;27.95;16.67;;;;;;;-6.49;100.00;100016.48;1707724;83;21086;-63
2021/12/28 06:56:03;;;;;;;33.50;18.32;;;;;;;-6.50;100.00;100014.81;1711475;83;20988;-64
2021/12/28 06:58:30;;;;;;;34.48;18.52;;;;;;;-6.50;100.00;100017.46;1700776;83;21104;-63
2021/12/28 07:00:56;;;;;;;;;;;;;;;-6.51;100.00;100009.66;1711788;82;21003;-63
2021/12/28 07:03:23;;;;;;;33.67;17.07;;;;;;;-6.51;100.00;100012.30;1722166;82;20139;-63
2021/12/28 07:05:49;;;;;;;30.20;17.52;;;;;;;-6.57;100.00;100019.91;1722331;82;21063;-63
2021/12/28 07:08:15;;;;;;;28.80;17.00;;;;;;;-6.56;100.00;100019.41;1707730;82;21514;-63
2021/12/28 07:10:43;;;;;;;31.52;17.60;;;;;;;-6.53;100.00;100018.27;1727723;82;21011;-64
2021/12/28 07:13:09;;;;;;;29.20;15.85;;;;;;;-6.52;100.00;100011.50;1730281;81;21035;-62
2021/12/28 07:15:35;;;;;;;36.30;19.20;;;;;;;-6.53;100.00;100012.97;1722840;82;20978;-64
2021/12/28 07:18:02;;;;;;;33.65;18.73;;;;;;;-6.53;100.00;100007.67;1717339;83;21526;-62
2021/12/28 07:20:28;;;;;;;33.28;17.98;;;;;;;-6.52;100.00;100018.61;1722228;82;21118;-64
2021/12/28 07:22:55;;;;;;;33.75;18.70;;;;;;;-6.54;100.00;100005.52;1716279;83;20991;-61
2021/12/28 07:25:21;;;;;;;38.92;19.55;;;;;;;-6.57;100.00;100005.34;1718595;83;21051;-62
2021/12/28 07:27:47;;;;;;;32.38;18.65;;;;;;;-6.58;100.00;100008.97;1724129;82;21027;-64
2021/12/28 07:30:14;;;;;;;35.10;19.70;;;;;;;-6.55;100.00;100007.33;1736609;81;21079;-63
2021/12/28 07:32:40;;;;;;;33.60;19.82;;;;;;;-6.52;100.00;100002.72;1731255;82;21572;-65
2021/12/28 07:35:08;;;;;;;34.90;19.90;;;;;;;-6.50;100.00;99998.09;1721501;82;21035;-62
2021/12/28 07:37:34;;;;;;;32.73;18.48;;;;;;;-6.48;100.00;99988.98;1738047;82;21593;-63
2021/12/28 07:40:01;;;;;;;32.00;18.35;;;;;;;-6.44;100.00;99985.05;1737915;81;21043;-62
2021/12/28 07:42:27;;;;;;;36.35;20.68;;;;;;;-6.45;100.00;99982.08;1723085;82;20992;-62
2021/12/28 07:44:54;;;;;;;35.00;19.15;;;;;;;-6.44;100.00;99986.86;1734454;82;21019;-63
2021/12/28 07:47:20;;;;;;;38.25;19.48;;;;;;;-6.44;100.00;99985.53;1735605;82;21066;-63
2021/12/28 07:49:46;;;;;;;35.43;19.67;;;;;;;-6.44;100.00;99982.39;1731899;82;21580;-63
2021/12/28 07:52:13;;;;;;;;;;;;;;;-6.39;100.00;99991.20;1735952;82;21501;-63
2021/12/28 07:54:40;;;;;;;36.10;18.48;;;;;;;-6.38;100.00;99990.22;1735045;81;20114;-62
2021/12/28 07:57:07;;;;;;;33.53;18.07;;;;;;;-6.38;100.00;99991.55;1742862;81;21030;-64
2021/12/28 07:59:33;;;;;;;33.92;18.87;;;;;;;-6.34;100.00;99991.58;1735916;82;21723;-62
2021/12/28 08:02:00;;;;;;;34.45;18.75;;;;;;;-6.31;100.00;99991.25;1727939;81;21140;-62
2021/12/28 08:04:27;;;;;;;31.30;18.00;;;;;;;-6.29;100.00;99991.91;1730778;81;21059;-60
2021/12/28 08:06:56;;;;;;;35.48;17.92;;;;;;;-6.26;100.00;99987.62;1730174;83;21024;-61
2021/12/28 08:09:22;;;;;;;32.08;17.57;;;;;;;-6.24;100.00;99986.98;1732028;81;21673;-63
2021/12/28 08:11:50;;;;;;;32.53;18.27;;;;;;;-6.21;100.00;99985.34;1733016;81;21591;-61
2021/12/28 08:14:17;;;;;;;29.60;17.20;;;;;;;-6.21;100.00;99981.36;1713719;83;21108;-60
2021/12/28 08:16:45;;;;;;;35.23;18.42;;;;;;;-6.16;100.00;99983.02;1735257;82;20995;-61
2021/12/28 08:19:11;;;;;;;34.67;19.40;;;;;;;-6.14;100.00;99976.59;1730104;81;21096;-61
2021/12/28 08:21:38;;;;;;;34.23;19.17;;;;;;;-6.13;100.00;99972.94;1730251;82;21019;-61
2021/12/28 08:24:05;;;;;;;30.48;18.57;;;;;;;-6.14;100.00;99969.14;1717197;83;21155;-62
2021/12/28 08:26:32;;;;;;;30.80;17.25;;;;;;;-6.22;100.00;99963.80;1724810;81;20979;-62
2021/12/28 08:29:00;;;;;;;26.95;17.45;;;;;;;-6.27;100.00;99962.13;1730507;82;21548;-60
2021/12/28 08:31:26;;;;;;;32.08;17.73;;;;;;;-6.29;100.00;99964.09;1731075;82;21509;-60
2021/12/28 08:33:53;;;;;;;29.65;15.80;;;;;;;-6.25;100.00;99963.63;1691754;84;21130;-61
2021/12/28 08:36:19;;;;;;;29.02;17.35;;;;;;;-6.26;100.00;99961.13;1690358;85;21019;-62
2021/12/28 08:38:46;;;;;;;30.00;17.40;;;;;;;-6.28;100.00;99955.16;1690938;84;21133;-60
2021/12/28 08:41:13;;;;;;;29.82;17.42;;;;;;;-6.25;100.00;99951.70;1689724;85;21059;-60
2021/12/28 08:43:40;;;;;;;28.95;16.57;;;;;;;-6.18;100.00;99962.00;1687596;85;21071;-61
2021/12/28 08:46:06;;;;;;;32.83;18.20;;;;;;;-6.13;100.00;99953.58;1685021;83;21084;-61
2021/12/28 08:48:33;;;;;;;31.95;18.05;;;;;;;-6.14;100.00;99956.72;1676342;85;21078;-61
2021/12/28 08:50:59;;;;;;;32.58;17.12;;;;;;;-6.16;100.00;99957.84;1675003;85;21097;-61
2021/12/28 08:53:26;;;;;;;30.32;17.25;;;;;;;-6.16;100.00;99946.76;1725512;82;21143;-61
2021/12/28 08:55:52;;;;;;;;;;;;;;;-6.19;100.00;99946.25;1727919;82;21517;-60
2021/12/28 08:58:19;;;;;;;32.70;17.70;;;;;;;-6.22;100.00;99935.48;1728738;81;20115;-62
2021/12/28 09:00:45;;;;;;;;;;;;;;;-6.26;100.00;99929.33;1730196;82;20987;-61
2021/12/28 09:03:12;;;;;;;27.82;14.70;;;;;;;-6.29;100.00;99924.35;1726898;81;20111;-62
2021/12/28 09:05:38;;;;;;;33.58;18.45;;;;;;;-6.30;100.00;99922.20;1738085;82;21089;-63
2021/12/28 09:08:10;;;;;;;32.13;18.42;;;;;;;-6.32;100.00;99925.52;1732705;82;21533;-61
2021/12/28 09:10:35;;;;;;;30.68;17.95;;;;;;;-6.36;100.00;99920.69;1726935;82;21074;-62
2021/12/28 09:13:03;;;;;;;28.17;17.65;;;;;;;-6.33;100.00;99925.66;1728658;82;21047;-63
2021/12/28 09:15:30;;;;;;;32.98;16.93;;;;;;;-6.27;100.00;99923.20;1725108;82;21886;-61
2021/12/28 09:17:56;;;;;;;34.03;19.75;;;;;;;-6.23;100.00;99919.23;1729098;81;20998;-62
2021/12/28 09:20:26;;;;;;;31.77;18.55;;;;;;;-6.23;100.00;99918.41;1734383;81;21613;-64
2021/12/28 09:22:53;;;;;;;33.30;18.73;;;;;;;-6.28;100.00;99917.58;1732085;82;21016;-62
2021/12/28 09:25:19;;;;;;;32.33;18.55;;;;;;;-6.31;100.00;99902.50;1738935;82;21142;-63
2021/12/28 09:27:46;;;;;;;33.58;18.55;;;;;;;-6.27;100.00;99907.82;1732314;82;21543;-61
2021/12/28 09:30:13;;;;;;;35.55;20.05;;;;;;;-6.26;100.00;99907.64;1726692;81;21046;-63
2021/12/28 09:32:41;;;;;;;34.27;20.00;;;;;;;-6.24;100.00;99905.68;1730914;81;21035;-63
2021/12/28 09:35:09;;;;;;;31.85;18.87;;;;;;;-6.20;100.00;99891.61;1739692;81;21555;-63
2021/12/28 09:37:36;;;;;;;34.08;19.20;;;;;;;-6.16;100.00;99891.11;1714524;82;21023;-63
2021/12/28 09:40:07;;;;;;;29.15;17.27;;;;;;;-6.12;100.00;99894.27;1725401;81;21049;-63
2021/12/28 09:42:35;;;;;;;32.58;19.02;;;;;;;-6.08;100.00;99881.03;1733264;82;21006;-63
2021/12/28 09:45:01;;;;;;;32.00;17.77;;;;;;;-6.12;100.00;99880.52;1734018;82;21085;-62
2021/12/28 09:47:28;;;;;;;31.90;18.80;;;;;;;-6.09;100.00;99869.59;1727890;82;21462;-64
2021/12/28 09:49:54;;;;;;;36.13;19.02;;;;;;;-6.06;100.00;99874.57;1726715;81;21106;-64
2021/12/28 09:52:20;;;;;;;37.88;19.75;;;;;;;-6.05;100.00;99876.23;1713335;83;21545;-63
2021/12/28 09:54:47;;;;;;;35.33;20.60;;;;;;;-6.03;100.00;99869.95;1713314;82;21114;-64
2021/12/28 09:57:15;;;;;;;34.73;19.73;;;;;;;-6.04;100.00;99878.39;1720378;82;21067;-63
2021/12/28 09:59:45;;;;;;;33.05;18.25;;;;;;;-6.03;100.00;99874.77;1728267;82;21062;-64
2021/12/28 10:02:11;;;;;;;36.13;18.92;;;;;;;-6.00;100.00;99878.41;1729960;82;21016;-64
2021/12/28 10:04:54;;;;;;;34.10;20.17;;;;;;;-5.94;100.00;99871.13;1731045;81;21688;-64
2021/12/28 10:07:25;;;;;;;31.73;19.17;;;;;;;-5.89;100.00;99875.45;1711267;82;20995;-64
2021/12/28 10:09:51;;;;;;;32.85;19.60;;;;;;;-5.87;100.00;99874.78;1727256;82;21078;-63
2021/12/28 10:12:33;;;;;;;33.23;18.75;;;;;;;-5.84;100.00;99874.42;1729149;82;21015;-64
2021/12/28 10:15:03;;;;;;;32.20;18.73;;;;;;;-5.79;100.00;99873.44;1711636;82;21082;-64
2021/12/28 10:17:31;;;;;;;36.55;18.73;;;;;;;-5.75;100.00;99865.50;1695288;85;21590;-68
2021/12/28 10:19:59;;;;;;;32.58;18.52;;;;;;;-5.68;100.00;99873.13;1721819;82;21122;-63
2021/12/28 10:22:35;;;;;;;36.25;20.40;;;;;;;-5.64;100.00;99865.17;1730535;82;21011;-64
2021/12/28 10:25:09;;;;;;;31.87;17.30;;;;;;;-5.62;100.00;99859.20;1723875;82;21590;-63
2021/12/28 10:27:37;;;;;;;32.53;17.32;;;;;;;-5.60;100.00;99859.05;1746811;81;20993;-64
2021/12/28 10:30:21;;;;;;;32.80;18.75;;;;;;;-5.63;100.00;99850.90;1744363;81;21063;-63
2021/12/28 10:33:00;;;;;;;34.38;18.95;;;;;;;-5.62;100.00;99851.73;1711808;83;21082;-64
2021/12/28 10:35:30;;;;;;;34.50;18.60;;;;;;;-5.62;100.00;99849.08;1695032;83;21095;-64
2021/12/28 10:38:00;;;;;;;29.52;16.50;;;;;;;-5.64;100.00;99841.80;1704354;82;21055;-64
2021/12/28 10:40:34;;;;;;;35.38;19.17;;;;;;;-5.65;100.00;99845.44;1735415;82;21106;-62
2021/12/28 10:43:14;;;;;;;32.20;17.65;;;;;;;-5.60;100.00;99846.59;1725699;81;21057;-63
2021/12/28 10:45:47;;;;;;;32.08;17.07;;;;;;;-5.59;100.00;99844.27;1714619;80;21046;-63
2021/12/28 10:48:19;;;;;;;33.15;19.35;;;;;;;-5.57;100.00;99843.63;1728202;82;20983;-63
2021/12/28 10:51:03;;;;;;;33.50;16.62;;;;;;;-5.61;100.00;99839.64;1734578;81;21034;-62
2021/12/28 10:53:37;;;;;;;29.07;17.15;;;;;;;-5.61;100.00;99842.79;1696299;83;21094;-63
2021/12/28 10:56:02;;;;;;;29.98;17.17;;;;;;;-5.61;100.00;99839.64;1724124;82;21019;-63
2021/12/28 10:58:40;;;;;;;30.55;17.48;;;;;;;-5.54;100.00;99846.44;1730330;82;21110;-65
2021/12/28 11:01:09;;;;;;;;;;;;;;;-5.53;100.00;99838.81;1732520;83;21046;-64
2021/12/28 11:03:36;;;;;;;34.35;17.52;;;;;;;-5.58;100.00;99845.11;1733085;82;20143;-63
2021/12/28 11:06:13;;;;;;;30.43;17.48;;;;;;;-5.66;100.00;99844.60;1738511;82;21058;-63
2021/12/28 11:08:41;;;;;;;34.83;17.77;;;;;;;-5.62;100.00;99846.43;1745582;81;21444;-63
2021/12/28 11:11:11;;;;;;;32.28;18.05;;;;;;;-5.62;100.00;99838.47;1745036;82;21064;-63
2021/12/28 11:13:38;;;;;;;36.88;18.27;;;;;;;-5.68;100.00;99836.00;1700950;83;21644;-64
2021/12/28 11:16:09;;;;;;;31.57;18.07;;;;;;;-5.69;100.00;99838.31;1700969;84;21072;-65
2021/12/28 11:18:47;;;;;;;36.15;17.48;;;;;;;-5.67;100.00;99837.63;1701604;82;21174;-64